createdAt,value
2023-01-12T00:02:55.976Z,9.06
2023-01-12T00:06:01.106Z,9.18
2023-01-12T00:09:07.832Z,8.99
2023-01-12T00:12:12.928Z,9.14
2023-01-12T00:15:16.796Z,9.11
2023-01-12T00:18:20.538Z,9.10
2023-01-12T00:21:24.189Z,9.18
2023-01-12T00:24:31.306Z,9.08
2023-01-12T00:27:34.996Z,9.20
2023-01-12T00:30:38.815Z,9.08
2023-01-12T00:33:42.580Z,9.00
2023-01-12T00:36:47.103Z,9.24
2023-01-12T00:40:01.800Z,9.17
2023-01-12T00:43:19.639Z,9.11
2023-01-12T00:46:31.428Z,9.32
2023-01-12T00:49:35.200Z,9.35
2023-01-12T00:52:38.946Z,9.16
2023-01-12T00:55:44.103Z,9.19
2023-01-12T00:58:48.623Z,9.18
2023-01-12T01:01:52.275Z,9.09
2023-01-12T01:04:55.957Z,9.19
2023-01-12T01:07:59.713Z,9.09
2023-01-12T01:11:05.874Z,8.98
2023-01-12T01:14:09.935Z,8.90
2023-01-12T01:17:13.633Z,9.16
2023-01-12T01:20:17.534Z,8.79
2023-01-12T01:23:21.410Z,9.13
2023-01-12T01:26:26.748Z,9.16
2023-01-12T01:29:30.237Z,8.96
2023-01-12T01:32:33.845Z,9.12
2023-01-12T01:35:37.617Z,8.95
2023-01-12T01:38:42.175Z,9.02
2023-01-12T01:41:48.282Z,8.88
2023-01-12T01:44:55.097Z,9.06
2023-01-12T01:48:03.441Z,9.04
2023-01-12T01:51:11.443Z,9.03
2023-01-12T01:54:16.151Z,9.10
2023-01-12T01:57:23.482Z,8.97
2023-01-12T02:00:27.713Z,8.81
2023-01-12T02:03:36.578Z,8.97
2023-01-12T02:06:40.859Z,8.80
2023-01-12T02:09:45.833Z,8.84
2023-01-12T02:13:09.532Z,8.88
2023-01-12T02:16:22.123Z,8.82
2023-01-12T02:19:50.218Z,8.83
2023-01-12T02:23:17.620Z,8.75
2023-01-12T02:26:53.555Z,8.90
2023-01-12T02:30:38.536Z,8.97
2023-01-12T02:33:56.188Z,8.83
2023-01-12T02:37:08.964Z,8.88
2023-01-12T02:40:22.291Z,9.05
2023-01-12T02:43:29.089Z,8.96
2023-01-12T02:46:34.193Z,8.78
2023-01-12T02:49:45.955Z,8.85
2023-01-12T02:52:56.589Z,8.84
2023-01-12T02:56:02.232Z,8.68
2023-01-12T02:59:13.410Z,8.75
2023-01-12T03:02:20.549Z,8.79
2023-01-12T03:05:25.640Z,8.80
2023-01-12T03:08:31.953Z,8.81
2023-01-12T03:11:40.521Z,8.73
2023-01-12T03:14:47.447Z,8.74
2023-01-12T03:17:56.044Z,8.68
2023-01-12T03:21:06.681Z,8.54
2023-01-12T03:24:14.621Z,8.48
2023-01-12T03:27:23.516Z,8.55
2023-01-12T03:30:33.165Z,8.54
2023-01-12T03:33:37.447Z,8.52
2023-01-12T03:36:49.874Z,8.62
2023-01-12T03:40:02.636Z,8.61
2023-01-12T03:43:14.024Z,8.65
2023-01-12T03:46:23.150Z,8.67
2023-01-12T03:49:32.468Z,8.31
2023-01-12T03:52:40.890Z,8.58
2023-01-12T03:55:46.611Z,8.61
2023-01-12T03:58:51.803Z,8.73
2023-01-12T04:01:55.529Z,8.55
2023-01-12T04:04:59.160Z,8.52
2023-01-12T04:08:04.267Z,8.67
2023-01-12T04:11:22.737Z,8.77
2023-01-12T04:14:26.455Z,8.67
2023-01-12T04:17:30.166Z,8.60
2023-01-12T04:20:34.283Z,8.83
2023-01-12T04:23:38.217Z,8.85
2023-01-12T04:26:41.832Z,8.92
2023-01-12T04:29:46.126Z,8.85
2023-01-12T04:32:49.756Z,8.94
2023-01-12T04:35:53.361Z,8.89
2023-01-12T04:38:58.440Z,8.94
2023-01-12T04:42:02.048Z,8.94
2023-01-12T04:45:06.619Z,8.68
2023-01-12T04:48:12.422Z,8.83
2023-01-12T04:51:16.035Z,8.50
2023-01-12T04:54:21.165Z,8.87
2023-01-12T04:57:24.813Z,8.82
2023-01-12T05:00:28.778Z,8.93
2023-01-12T05:03:32.765Z,8.81
2023-01-12T05:06:36.297Z,8.86
2023-01-12T05:09:58.547Z,8.87
2023-01-12T05:13:02.013Z,9.05
2023-01-12T05:16:13.007Z,8.98
2023-01-12T05:19:16.822Z,9.02
2023-01-12T05:22:20.657Z,8.90
2023-01-12T05:25:27.060Z,8.89
2023-01-12T05:28:31.352Z,8.72
2023-01-12T05:31:36.222Z,8.71
2023-01-12T05:34:40.551Z,8.74
2023-01-12T05:37:44.149Z,8.74
2023-01-12T05:40:49.116Z,8.80
2023-01-12T05:43:52.023Z,8.82
2023-01-12T05:46:56.067Z,8.65
2023-01-12T05:49:59.800Z,8.59
2023-01-12T05:53:03.472Z,8.34
2023-01-12T05:56:13.541Z,8.51
2023-01-12T05:59:17.305Z,8.72
2023-01-12T06:02:21.837Z,8.78
2023-01-12T06:05:25.756Z,8.67
2023-01-12T06:08:29.885Z,8.86
2023-01-12T06:11:52.429Z,8.95
2023-01-12T06:14:56.078Z,8.80
2023-01-12T06:17:59.815Z,8.87
2023-01-12T06:21:03.668Z,8.76
2023-01-12T06:24:08.017Z,8.80
2023-01-12T06:27:13.115Z,8.83
2023-01-12T06:30:16.916Z,8.96
2023-01-12T06:33:20.605Z,8.87
2023-01-12T06:36:24.341Z,8.82
2023-01-12T06:39:28.165Z,8.78
2023-01-12T06:42:33.571Z,8.91
2023-01-12T06:45:37.306Z,8.77
2023-01-12T06:48:40.964Z,8.96
2023-01-12T06:51:44.863Z,8.79
2023-01-12T06:54:48.736Z,8.93
2023-01-12T06:57:53.923Z,8.86
2023-01-12T07:01:02.565Z,8.89
2023-01-12T07:04:06.591Z,8.84
2023-01-12T07:07:11.843Z,9.06
2023-01-12T07:10:15.623Z,8.83
2023-01-12T07:13:20.880Z,8.90
2023-01-12T07:16:24.646Z,8.91
2023-01-12T07:19:28.343Z,8.67
2023-01-12T07:22:32.256Z,8.68
2023-01-12T07:25:36.244Z,8.87
2023-01-12T07:28:43.044Z,9.04
2023-01-12T07:31:46.785Z,8.86
2023-01-12T07:34:50.483Z,9.13
2023-01-12T07:37:55.251Z,9.22
2023-01-12T07:41:00.481Z,9.04
2023-01-12T07:44:05.974Z,9.06
2023-01-12T07:47:09.929Z,9.06
2023-01-12T07:50:13.595Z,9.10
2023-01-12T07:53:17.293Z,8.99
2023-01-12T07:56:21.179Z,9.22
2023-01-12T07:59:27.711Z,9.29
2023-01-12T08:02:32.534Z,9.26
2023-01-12T08:05:37.787Z,9.13
2023-01-12T08:08:41.544Z,9.32
2023-01-12T08:11:45.168Z,9.52
2023-01-12T08:14:50.325Z,9.38
2023-01-12T08:17:58.533Z,9.46
2023-01-12T08:21:05.838Z,9.49
2023-01-12T08:24:10.836Z,9.44
2023-01-12T08:27:14.596Z,9.29
2023-01-12T08:30:23.056Z,9.60
2023-01-12T08:33:28.094Z,9.65
2023-01-12T08:36:33.109Z,9.71
2023-01-12T08:39:37.569Z,9.52
2023-01-12T08:42:41.273Z,9.78
2023-01-12T08:45:46.376Z,9.65
2023-01-12T08:48:50.068Z,9.93
2023-01-12T08:51:54.464Z,9.76
2023-01-12T08:54:58.701Z,9.89
2023-01-12T08:58:02.568Z,9.81
2023-01-12T09:01:13.016Z,9.90
2023-01-12T09:04:17.107Z,9.86
2023-01-12T09:07:21.114Z,9.98
2023-01-12T09:10:24.943Z,9.98
2023-01-12T09:13:28.808Z,10.21
2023-01-12T09:16:35.477Z,10.23
2023-01-12T09:19:39.347Z,9.99
2023-01-12T09:22:43.144Z,10.28
2023-01-12T09:25:47.104Z,10.30
2023-01-12T09:28:52.263Z,10.50
2023-01-12T09:31:57.687Z,10.64
2023-01-12T09:35:01.403Z,10.72
2023-01-12T09:38:05.286Z,10.68
2023-01-12T09:41:13.146Z,10.72
2023-01-12T09:44:38.363Z,10.54
2023-01-12T09:47:53.663Z,10.78
2023-01-12T09:51:05.140Z,10.78
2023-01-12T09:54:09.166Z,10.76
2023-01-12T09:57:45.585Z,10.65
2023-01-12T10:00:52.714Z,10.76
2023-01-12T10:03:59.685Z,10.85
2023-01-12T10:07:03.844Z,11.04
2023-01-12T10:10:08.652Z,11.18
2023-01-12T10:13:15.290Z,11.27
2023-01-12T10:16:27.853Z,11.46
2023-01-12T10:19:45.913Z,11.13
2023-01-12T10:22:54.130Z,11.23
2023-01-12T10:26:09.024Z,11.06
2023-01-12T10:29:13.967Z,11.21
2023-01-12T10:32:17.646Z,11.38
2023-01-12T10:35:25.045Z,11.15
2023-01-12T10:38:31.712Z,11.33
2023-01-12T10:41:36.288Z,11.38
2023-01-12T10:44:40.084Z,11.34
2023-01-12T10:47:44.286Z,11.21
2023-01-12T10:51:02.644Z,11.32
2023-01-12T10:54:18.570Z,11.27
2023-01-12T10:57:24.878Z,11.28
2023-01-12T11:00:31.779Z,11.23
2023-01-12T11:03:38.625Z,11.54
2023-01-12T11:06:47.230Z,11.51
2023-01-12T11:09:51.225Z,11.73
2023-01-12T11:12:59.912Z,11.59
2023-01-12T11:16:10.185Z,11.60
2023-01-12T11:19:19.305Z,11.80
2023-01-12T11:22:28.593Z,11.50
2023-01-12T11:25:35.829Z,11.46
2023-01-12T11:28:44.226Z,11.45
2023-01-12T11:31:53.467Z,11.62
2023-01-12T11:35:00.715Z,11.69
2023-01-12T11:38:13.633Z,11.73
2023-01-12T11:41:25.701Z,11.81
2023-01-12T11:44:34.964Z,11.83
2023-01-12T11:47:44.708Z,11.70
2023-01-12T11:50:53.127Z,11.81
2023-01-12T11:53:59.425Z,11.77
2023-01-12T11:57:45.669Z,11.90
2023-01-12T12:01:01.600Z,11.93
2023-01-12T12:04:21.784Z,11.92
2023-01-12T12:07:53.765Z,11.93
2023-01-12T12:11:04.086Z,12.01
2023-01-12T12:14:29.495Z,11.81
2023-01-12T12:17:45.807Z,11.61
2023-01-12T12:21:05.384Z,11.78
2023-01-12T12:24:21.728Z,11.37
2023-01-12T12:27:41.422Z,11.58
2023-01-12T12:31:04.896Z,11.62
2023-01-12T12:34:37.793Z,11.82
2023-01-12T12:37:53.746Z,11.83
2023-01-12T12:41:34.037Z,11.49
2023-01-12T12:45:06.472Z,11.70
2023-01-12T12:48:16.964Z,11.74
2023-01-12T12:51:23.067Z,11.73
2023-01-12T12:54:28.187Z,11.73
2023-01-12T12:57:32.095Z,11.82
2023-01-12T13:00:42.994Z,11.49
2023-01-12T13:03:48.146Z,11.52
2023-01-12T13:06:52.105Z,11.41
2023-01-12T13:10:06.344Z,11.57
2023-01-12T13:13:26.763Z,11.64
2023-01-12T13:16:51.871Z,11.83
2023-01-12T13:20:26.665Z,11.65
2023-01-12T13:23:50.729Z,11.62
2023-01-12T13:26:55.803Z,11.58
2023-01-12T13:30:22.055Z,11.79
2023-01-12T13:33:29.324Z,11.77
2023-01-12T13:36:33.172Z,11.85
2023-01-12T13:39:41.507Z,11.68
2023-01-12T13:43:03.625Z,11.69
2023-01-12T13:46:15.392Z,11.62
2023-01-12T13:49:33.266Z,11.58
2023-01-12T13:52:39.685Z,11.45
2023-01-12T13:55:43.584Z,11.56
2023-01-12T13:58:47.385Z,11.59
2023-01-12T14:01:51.512Z,11.58
2023-01-12T14:05:06.856Z,11.54
2023-01-12T14:08:51.229Z,11.52
2023-01-12T14:12:17.606Z,11.42
2023-01-12T14:15:53.060Z,11.40
2023-01-12T14:18:57.143Z,11.32
2023-01-12T14:22:04.766Z,11.24
2023-01-12T14:25:21.132Z,11.27
2023-01-12T14:28:32.484Z,11.39
2023-01-12T14:31:40.742Z,11.29
2023-01-12T14:34:52.665Z,11.22
2023-01-12T14:38:00.830Z,11.30
2023-01-12T14:41:07.042Z,11.17
2023-01-12T14:44:37.270Z,11.12
2023-01-12T14:47:42.249Z,11.10
2023-01-12T14:51:00.244Z,11.11
2023-01-12T14:54:19.466Z,11.24
2023-01-12T14:57:29.463Z,11.30
2023-01-12T15:00:35.845Z,11.34
2023-01-12T15:03:44.129Z,11.40
2023-01-12T15:06:48.701Z,11.30
2023-01-12T15:09:56.733Z,11.22
2023-01-12T15:13:14.108Z,11.05
2023-01-12T15:16:35.095Z,10.88
2023-01-12T15:19:56.729Z,10.89
2023-01-12T15:23:17.945Z,10.81
2023-01-12T15:26:24.084Z,10.95
2023-01-12T15:29:27.945Z,10.94
2023-01-12T15:32:51.438Z,11.08
2023-01-12T15:35:55.264Z,10.98
2023-01-12T15:38:59.202Z,11.09
2023-01-12T15:42:22.230Z,11.01
2023-01-12T15:45:34.776Z,11.11
2023-01-12T15:48:38.725Z,11.15
2023-01-12T15:51:43.304Z,11.19
2023-01-12T15:54:47.164Z,11.25
2023-01-12T15:57:52.531Z,11.03
2023-01-12T16:00:56.900Z,10.92
2023-01-12T16:04:39.854Z,11.04
2023-01-12T16:07:24.783Z,11.07
2023-01-12T16:10:30.487Z,10.91
2023-01-12T16:13:35.824Z,10.94
2023-01-12T16:16:39.842Z,10.89
2023-01-12T16:19:44.064Z,10.81
2023-01-12T16:22:48.581Z,10.71
2023-01-12T16:25:57.387Z,10.52
2023-01-12T16:29:02.749Z,10.52
2023-01-12T16:32:07.058Z,10.76
2023-01-12T16:35:10.963Z,10.70
2023-01-12T16:38:15.546Z,10.72
2023-01-12T16:41:22.563Z,10.48
2023-01-12T16:44:28.026Z,10.60
2023-01-12T16:47:31.842Z,10.61
2023-01-12T16:50:36.109Z,10.36
2023-01-12T16:53:41.776Z,10.53
2023-01-12T16:56:45.703Z,10.44
2023-01-12T16:59:51.320Z,10.23
2023-01-12T17:02:55.517Z,10.26
2023-01-12T17:05:59.504Z,10.09
2023-01-12T17:09:03.724Z,9.85
2023-01-12T17:12:08.484Z,9.90
2023-01-12T17:15:14.672Z,10.18
2023-01-12T17:18:18.542Z,10.17
2023-01-12T17:21:23.299Z,10.14
2023-01-12T17:24:27.808Z,10.21
2023-01-12T17:27:31.652Z,10.04
2023-01-12T17:30:37.133Z,10.20
2023-01-12T17:33:42.003Z,10.16
2023-01-12T17:36:46.347Z,10.04
2023-01-12T17:39:50.281Z,10.08
2023-01-12T17:43:08.456Z,9.76
2023-01-12T17:46:20.041Z,10.07
2023-01-12T17:49:23.983Z,9.74
2023-01-12T17:52:27.990Z,9.90
2023-01-12T17:55:34.051Z,9.91
2023-01-12T17:58:41.390Z,9.71
2023-01-12T18:01:47.748Z,9.72
2023-01-12T18:04:51.761Z,9.70
2023-01-12T18:07:55.703Z,9.56
2023-01-12T18:11:02.720Z,9.70
2023-01-12T18:14:07.161Z,9.78
2023-01-12T18:17:12.993Z,9.52
2023-01-12T18:20:17.212Z,9.79
2023-01-12T18:23:21.243Z,9.66
2023-01-12T18:26:26.711Z,9.66
2023-01-12T18:29:30.845Z,9.71
2023-01-12T18:32:36.101Z,9.86
2023-01-12T18:35:39.902Z,9.65
2023-01-12T18:38:43.948Z,9.69
2023-01-12T18:42:04.966Z,9.64
2023-01-12T18:45:09.721Z,9.63
2023-01-12T18:48:24.486Z,9.55
2023-01-12T18:51:45.495Z,9.68
2023-01-12T18:54:51.882Z,9.81
2023-01-12T18:57:55.678Z,9.71
2023-01-12T19:01:01.676Z,9.56
2023-01-12T19:04:07.212Z,9.67
2023-01-12T19:07:13.244Z,9.54
2023-01-12T19:10:17.646Z,9.71
2023-01-12T19:13:38.683Z,9.64
2023-01-12T19:17:00.152Z,9.72
2023-01-12T19:20:08.128Z,9.84
2023-01-12T19:23:44.883Z,9.68
2023-01-12T19:27:06.232Z,9.65
2023-01-12T19:30:11.793Z,9.45
2023-01-12T19:33:16.206Z,9.49
2023-01-12T19:36:21.606Z,9.55
2023-01-12T19:39:40.607Z,9.50
2023-01-12T19:43:03.612Z,9.51
2023-01-12T19:46:08.208Z,9.38
2023-01-12T19:49:13.266Z,9.30
2023-01-12T19:52:18.468Z,9.24
2023-01-12T19:55:22.363Z,9.13
2023-01-12T19:58:27.449Z,9.25
2023-01-12T20:01:32.210Z,9.13
2023-01-12T20:04:36.083Z,9.37
2023-01-12T20:07:41.551Z,9.30
2023-01-12T20:10:45.894Z,9.41
2023-01-12T20:13:49.724Z,9.37
2023-01-12T20:16:53.569Z,9.37
2023-01-12T20:19:57.469Z,9.30
2023-01-12T20:23:03.072Z,9.20
2023-01-12T20:26:09.411Z,9.25
2023-01-12T20:29:13.212Z,9.05
2023-01-12T20:32:17.104Z,9.30
2023-01-12T20:35:23.445Z,9.33
2023-01-12T20:38:28.804Z,9.18
2023-01-12T20:41:32.744Z,9.14
2023-01-12T20:44:36.685Z,9.30
2023-01-12T20:47:40.788Z,9.36
2023-01-12T20:50:45.452Z,9.26
2023-01-12T20:53:50.829Z,9.22
2023-01-12T20:56:54.608Z,9.16
2023-01-12T20:59:58.493Z,9.37
2023-01-12T21:03:02.280Z,9.30
2023-01-12T21:06:10.296Z,9.35
2023-01-12T21:09:15.824Z,9.38
2023-01-12T21:12:19.911Z,9.49
2023-01-12T21:15:23.752Z,9.30
2023-01-12T21:18:27.686Z,9.20
2023-01-12T21:21:31.604Z,9.27
2023-01-12T21:24:37.007Z,9.13
2023-01-12T21:27:40.924Z,9.11
2023-01-12T21:30:44.846Z,9.13
2023-01-12T21:33:48.949Z,9.19
2023-01-12T21:36:52.803Z,9.27
2023-01-12T21:39:58.057Z,9.39
2023-01-12T21:43:12.506Z,9.29
2023-01-12T21:46:16.486Z,9.28
2023-01-12T21:49:20.325Z,9.28
2023-01-12T21:52:24.407Z,9.36
2023-01-12T21:55:29.725Z,9.37
2023-01-12T21:58:36.253Z,9.31
2023-01-12T22:01:40.128Z,9.10
2023-01-12T22:04:44.205Z,9.20
2023-01-12T22:07:49.205Z,9.22
2023-01-12T22:10:54.624Z,9.21
2023-01-12T22:13:58.323Z,9.41
2023-01-12T22:17:02.123Z,9.37
2023-01-12T22:20:06.714Z,9.38
2023-01-12T22:23:13.690Z,9.12
2023-01-12T22:26:21.900Z,9.18
2023-01-12T22:29:25.888Z,9.22
2023-01-12T22:32:29.648Z,9.32
2023-01-12T22:35:33.481Z,9.22
2023-01-12T22:38:37.367Z,9.28
2023-01-12T22:41:42.955Z,9.30
2023-01-12T22:44:46.972Z,9.33
2023-01-12T22:47:54.008Z,9.29
2023-01-12T22:51:01.383Z,9.11
2023-01-12T22:54:05.530Z,9.33
2023-01-12T22:57:10.861Z,9.38
2023-01-12T23:00:18.732Z,9.48
2023-01-12T23:03:22.743Z,9.50
2023-01-12T23:06:27.521Z,9.58
2023-01-12T23:09:31.074Z,9.60
2023-01-12T23:12:37.211Z,9.52
2023-01-12T23:15:42.112Z,9.45
2023-01-12T23:18:47.209Z,9.51
2023-01-12T23:21:50.829Z,9.49
2023-01-12T23:24:54.910Z,9.51
2023-01-12T23:28:00.486Z,9.61
2023-01-12T23:31:06.245Z,9.36
2023-01-12T23:34:10.063Z,9.47
2023-01-12T23:37:13.747Z,9.55
2023-01-12T23:40:18.258Z,9.07
2023-01-12T23:43:23.358Z,9.05
2023-01-12T23:46:28.146Z,9.35
2023-01-12T23:49:31.824Z,9.23
2023-01-12T23:52:35.433Z,9.35
2023-01-12T23:55:40.574Z,9.45
2023-01-12T23:58:45.801Z,9.33
